sensor_id;sensor_type;location;lat;lon;timestamp;pressure;altitude;pressure_sealevel;temperature;humidity
76728;BME280;65652;53.132;18.026;2023-08-08T00:00:27;100113.27;;;14.19;61.84
76728;BME280;65652;53.132;18.026;2023-08-08T00:03:14;100108.36;;;14.15;61.99
76728;BME280;65652;53.132;18.026;2023-08-08T00:05:41;100112.04;;;14.11;62.21
76728;BME280;65652;53.132;18.026;2023-08-08T00:08:08;100107.24;;;14.06;62.32
76728;BME280;65652;53.132;18.026;2023-08-08T00:10:35;100114.45;;;14.02;62.02
76728;BME280;65652;53.132;18.026;2023-08-08T00:13:01;100115.67;;;13.99;62.27
76728;BME280;65652;53.132;18.026;2023-08-08T00:15:29;100112.31;;;13.96;62.48
76728;BME280;65652;53.132;18.026;2023-08-08T00:17:55;100112.05;;;13.93;62.29
76728;BME280;65652;53.132;18.026;2023-08-08T00:20:22;100108.00;;;13.92;62.40
76728;BME280;65652;53.132;18.026;2023-08-08T00:22:49;100104.77;;;13.90;62.31
76728;BME280;65652;53.132;18.026;2023-08-08T00:25:16;100103.67;;;13.89;62.46
76728;BME280;65652;53.132;18.026;2023-08-08T00:27:42;100103.98;;;13.88;62.46
76728;BME280;65652;53.132;18.026;2023-08-08T00:30:12;100108.05;;;13.87;62.30
76728;BME280;65652;53.132;18.026;2023-08-08T00:32:39;100107.01;;;13.85;62.59
76728;BME280;65652;53.132;18.026;2023-08-08T00:35:07;100113.68;;;13.82;62.55
76728;BME280;65652;53.132;18.026;2023-08-08T00:37:34;100113.36;;;13.80;62.49
76728;BME280;65652;53.132;18.026;2023-08-08T00:40:00;100119.03;;;13.77;62.81
76728;BME280;65652;53.132;18.026;2023-08-08T00:42:27;100114.48;;;13.75;62.68
76728;BME280;65652;53.132;18.026;2023-08-08T00:44:55;100119.06;;;13.72;62.82
76728;BME280;65652;53.132;18.026;2023-08-08T00:47:28;100120.00;;;13.70;63.12
76728;BME280;65652;53.132;18.026;2023-08-08T00:49:56;100122.65;;;13.68;63.08
76728;BME280;65652;53.132;18.026;2023-08-08T00:52:23;100121.19;;;13.66;63.12
76728;BME280;65652;53.132;18.026;2023-08-08T00:54:50;100115.46;;;13.64;63.20
76728;BME280;65652;53.132;18.026;2023-08-08T00:57:16;100123.09;;;13.63;63.19
76728;BME280;65652;53.132;18.026;2023-08-08T00:59:43;100123.48;;;13.61;63.46
76728;BME280;65652;53.132;18.026;2023-08-08T01:02:11;100124.81;;;13.60;63.42
76728;BME280;65652;53.132;18.026;2023-08-08T01:04:38;100124.11;;;13.58;63.52
76728;BME280;65652;53.132;18.026;2023-08-08T01:09:55;100131.80;;;13.55;63.85
76728;BME280;65652;53.132;18.026;2023-08-08T01:12:25;100138.35;;;13.53;64.17
76728;BME280;65652;53.132;18.026;2023-08-08T01:14:54;100139.79;;;13.52;64.08
76728;BME280;65652;53.132;18.026;2023-08-08T01:17:21;100145.70;;;13.51;64.55
76728;BME280;65652;53.132;18.026;2023-08-08T01:19:49;100147.02;;;13.50;64.53
76728;BME280;65652;53.132;18.026;2023-08-08T01:22:27;100144.60;;;13.50;64.79
76728;BME280;65652;53.132;18.026;2023-08-08T01:24:57;100142.05;;;13.50;64.77
76728;BME280;65652;53.132;18.026;2023-08-08T01:27:26;100145.17;;;13.51;64.91
76728;BME280;65652;53.132;18.026;2023-08-08T01:29:53;100148.46;;;13.50;64.91
76728;BME280;65652;53.132;18.026;2023-08-08T01:32:20;100148.48;;;13.48;65.04
76728;BME280;65652;53.132;18.026;2023-08-08T01:34:47;100151.74;;;13.47;65.24
76728;BME280;65652;53.132;18.026;2023-08-08T01:37:20;100154.00;;;13.45;65.81
76728;BME280;65652;53.132;18.026;2023-08-08T01:39:50;100149.19;;;13.45;65.52
76728;BME280;65652;53.132;18.026;2023-08-08T01:42:21;100148.45;;;13.45;65.46
76728;BME280;65652;53.132;18.026;2023-08-08T01:44:48;100152.52;;;13.44;65.97
76728;BME280;65652;53.132;18.026;2023-08-08T01:47:15;100150.34;;;13.43;65.88
76728;BME280;65652;53.132;18.026;2023-08-08T01:49:42;100152.42;;;13.41;65.76
76728;BME280;65652;53.132;18.026;2023-08-08T01:52:09;100150.50;;;13.40;66.08
76728;BME280;65652;53.132;18.026;2023-08-08T01:54:36;100150.70;;;13.38;65.89
76728;BME280;65652;53.132;18.026;2023-08-08T01:57:03;100152.23;;;13.35;66.09
76728;BME280;65652;53.132;18.026;2023-08-08T01:59:30;100152.38;;;13.32;66.21
76728;BME280;65652;53.132;18.026;2023-08-08T02:01:56;100152.94;;;13.30;66.49
76728;BME280;65652;53.132;18.026;2023-08-08T02:04:23;100153.51;;;13.28;66.56
76728;BME280;65652;53.132;18.026;2023-08-08T02:06:50;100160.83;;;13.26;66.73
76728;BME280;65652;53.132;18.026;2023-08-08T02:09:17;100162.60;;;13.24;67.06
76728;BME280;65652;53.132;18.026;2023-08-08T02:11:43;100166.34;;;13.24;67.05
76728;BME280;65652;53.132;18.026;2023-08-08T02:14:10;100169.07;;;13.27;67.59
76728;BME280;65652;53.132;18.026;2023-08-08T02:16:37;100167.44;;;13.30;67.26
76728;BME280;65652;53.132;18.026;2023-08-08T02:19:06;100164.99;;;13.33;67.42
76728;BME280;65652;53.132;18.026;2023-08-08T02:21:32;100166.23;;;13.35;67.27
76728;BME280;65652;53.132;18.026;2023-08-08T02:23:59;100163.90;;;13.37;67.27
76728;BME280;65652;53.132;18.026;2023-08-08T02:26:26;100164.83;;;13.38;67.52
76728;BME280;65652;53.132;18.026;2023-08-08T02:28:53;100166.47;;;13.38;67.42
76728;BME280;65652;53.132;18.026;2023-08-08T02:31:19;100169.05;;;13.37;67.58
76728;BME280;65652;53.132;18.026;2023-08-08T02:33:48;100174.04;;;13.37;67.78
76728;BME280;65652;53.132;18.026;2023-08-08T02:36:17;100166.49;;;13.36;67.70
76728;BME280;65652;53.132;18.026;2023-08-08T02:38:44;100174.23;;;13.35;67.95
76728;BME280;65652;53.132;18.026;2023-08-08T02:41:11;100173.36;;;13.33;67.84
76728;BME280;65652;53.132;18.026;2023-08-08T02:43:38;100180.57;;;13.34;67.94
76728;BME280;65652;53.132;18.026;2023-08-08T02:46:05;100184.25;;;13.36;67.69
76728;BME280;65652;53.132;18.026;2023-08-08T02:48:32;100179.38;;;13.37;67.88
76728;BME280;65652;53.132;18.026;2023-08-08T02:50:59;100181.75;;;13.37;68.09
76728;BME280;65652;53.132;18.026;2023-08-08T02:53:26;100181.93;;;13.39;68.32
76728;BME280;65652;53.132;18.026;2023-08-08T02:55:53;100189.17;;;13.39;68.02
76728;BME280;65652;53.132;18.026;2023-08-08T02:58:20;100184.50;;;13.40;68.10
76728;BME280;65652;53.132;18.026;2023-08-08T03:00:46;100183.66;;;13.41;68.32
76728;BME280;65652;53.132;18.026;2023-08-08T03:03:14;100189.52;;;13.43;67.93
76728;BME280;65652;53.132;18.026;2023-08-08T03:05:43;100187.31;;;13.44;68.31
76728;BME280;65652;53.132;18.026;2023-08-08T03:08:11;100185.16;;;13.45;67.94
76728;BME280;65652;53.132;18.026;2023-08-08T03:10:38;100182.62;;;13.46;67.87
76728;BME280;65652;53.132;18.026;2023-08-08T03:13:05;100179.95;;;13.48;68.20
76728;BME280;65652;53.132;18.026;2023-08-08T03:15:32;100181.72;;;13.49;67.95
76728;BME280;65652;53.132;18.026;2023-08-08T03:17:59;100179.26;;;13.51;68.01
76728;BME280;65652;53.132;18.026;2023-08-08T03:20:26;100181.13;;;13.53;67.83
76728;BME280;65652;53.132;18.026;2023-08-08T03:22:53;100182.13;;;13.57;68.01
76728;BME280;65652;53.132;18.026;2023-08-08T03:25:21;100183.37;;;13.60;67.60
76728;BME280;65652;53.132;18.026;2023-08-08T03:27:48;100183.48;;;13.64;67.48
76728;BME280;65652;53.132;18.026;2023-08-08T03:30:15;100185.00;;;13.66;67.52
76728;BME280;65652;53.132;18.026;2023-08-08T03:32:43;100180.71;;;13.70;67.35
76728;BME280;65652;53.132;18.026;2023-08-08T03:35:09;100179.33;;;13.73;67.09
76728;BME280;65652;53.132;18.026;2023-08-08T03:37:37;100186.59;;;13.76;67.08
76728;BME280;65652;53.132;18.026;2023-08-08T03:40:04;100194.45;;;13.79;67.03
76728;BME280;65652;53.132;18.026;2023-08-08T03:42:31;100189.29;;;13.82;66.88
76728;BME280;65652;53.132;18.026;2023-08-08T03:44:58;100192.55;;;13.85;66.54
76728;BME280;65652;53.132;18.026;2023-08-08T03:47:25;100195.86;;;13.89;66.57
76728;BME280;65652;53.132;18.026;2023-08-08T03:49:55;100194.58;;;13.92;66.44
76728;BME280;65652;53.132;18.026;2023-08-08T03:52:24;100198.92;;;13.96;66.43
76728;BME280;65652;53.132;18.026;2023-08-08T03:54:51;100199.38;;;13.99;66.13
76728;BME280;65652;53.132;18.026;2023-08-08T03:57:19;100204.87;;;14.02;66.29
76728;BME280;65652;53.132;18.026;2023-08-08T03:59:46;100203.46;;;14.05;66.07
76728;BME280;65652;53.132;18.026;2023-08-08T04:02:12;100203.27;;;14.08;65.94
76728;BME280;65652;53.132;18.026;2023-08-08T04:04:40;100212.69;;;14.11;65.96
76728;BME280;65652;53.132;18.026;2023-08-08T04:07:06;100217.38;;;14.14;65.42
76728;BME280;65652;53.132;18.026;2023-08-08T04:09:33;100215.95;;;14.16;65.55
76728;BME280;65652;53.132;18.026;2023-08-08T04:12:00;100219.85;;;14.17;65.58
76728;BME280;65652;53.132;18.026;2023-08-08T04:14:27;100223.35;;;14.18;65.33
76728;BME280;65652;53.132;18.026;2023-08-08T04:16:54;100220.80;;;14.20;65.29
76728;BME280;65652;53.132;18.026;2023-08-08T04:19:21;100226.17;;;14.23;65.32
76728;BME280;65652;53.132;18.026;2023-08-08T04:21:48;100226.73;;;14.26;65.40
76728;BME280;65652;53.132;18.026;2023-08-08T04:24:14;100234.67;;;14.28;65.12
76728;BME280;65652;53.132;18.026;2023-08-08T04:26:41;100229.13;;;14.30;65.11
76728;BME280;65652;53.132;18.026;2023-08-08T04:29:08;100238.13;;;14.32;64.84
76728;BME280;65652;53.132;18.026;2023-08-08T04:31:35;100234.66;;;14.33;65.04
76728;BME280;65652;53.132;18.026;2023-08-08T04:34:02;100238.75;;;14.34;64.80
76728;BME280;65652;53.132;18.026;2023-08-08T04:36:29;100241.15;;;14.35;64.54
76728;BME280;65652;53.132;18.026;2023-08-08T04:38:56;100243.95;;;14.36;64.71
76728;BME280;65652;53.132;18.026;2023-08-08T04:41:23;100240.08;;;14.37;64.33
76728;BME280;65652;53.132;18.026;2023-08-08T04:43:49;100244.77;;;14.38;64.31
76728;BME280;65652;53.132;18.026;2023-08-08T04:46:16;100247.27;;;14.39;64.26
76728;BME280;65652;53.132;18.026;2023-08-08T04:48:43;100249.98;;;14.41;64.37
76728;BME280;65652;53.132;18.026;2023-08-08T04:51:10;100259.44;;;14.42;64.05
76728;BME280;65652;53.132;18.026;2023-08-08T04:53:37;100261.02;;;14.42;63.70
76728;BME280;65652;53.132;18.026;2023-08-08T04:56:04;100262.83;;;14.42;63.80
76728;BME280;65652;53.132;18.026;2023-08-08T04:58:30;100273.82;;;14.42;63.60
76728;BME280;65652;53.132;18.026;2023-08-08T05:00:57;100269.14;;;14.42;63.55
76728;BME280;65652;53.132;18.026;2023-08-08T05:03:25;100272.66;;;14.44;63.87
76728;BME280;65652;53.132;18.026;2023-08-08T05:05:52;100274.43;;;14.48;64.02
76728;BME280;65652;53.132;18.026;2023-08-08T05:08:18;100277.89;;;14.55;64.12
76728;BME280;65652;53.132;18.026;2023-08-08T05:10:45;100276.57;;;14.65;64.29
76728;BME280;65652;53.132;18.026;2023-08-08T05:13:12;100279.52;;;14.75;63.26
76728;BME280;65652;53.132;18.026;2023-08-08T05:15:39;100283.62;;;14.81;62.91
76728;BME280;65652;53.132;18.026;2023-08-08T05:18:06;100281.19;;;14.96;63.06
76728;BME280;65652;53.132;18.026;2023-08-08T05:20:33;100276.30;;;15.13;62.96
76728;BME280;65652;53.132;18.026;2023-08-08T05:22:59;100278.75;;;15.27;63.18
76728;BME280;65652;53.132;18.026;2023-08-08T05:25:26;100285.75;;;15.44;62.87
76728;BME280;65652;53.132;18.026;2023-08-08T05:27:53;100288.52;;;15.50;61.96
76728;BME280;65652;53.132;18.026;2023-08-08T05:30:21;100293.27;;;15.54;61.74
76728;BME280;65652;53.132;18.026;2023-08-08T05:32:48;100294.92;;;15.54;62.13
76728;BME280;65652;53.132;18.026;2023-08-08T05:35:15;100292.29;;;15.60;61.93
76728;BME280;65652;53.132;18.026;2023-08-08T05:37:42;100300.09;;;15.66;61.30
76728;BME280;65652;53.132;18.026;2023-08-08T05:40:09;100302.50;;;15.59;61.34
76728;BME280;65652;53.132;18.026;2023-08-08T05:42:37;100302.16;;;15.54;61.50
76728;BME280;65652;53.132;18.026;2023-08-08T05:45:04;100298.45;;;15.49;62.09
76728;BME280;65652;53.132;18.026;2023-08-08T05:47:31;100300.17;;;15.51;61.92
76728;BME280;65652;53.132;18.026;2023-08-08T05:49:59;100303.08;;;15.49;62.06
76728;BME280;65652;53.132;18.026;2023-08-08T05:52:25;100305.02;;;15.48;61.99
76728;BME280;65652;53.132;18.026;2023-08-08T05:54:52;100305.23;;;15.46;62.15
76728;BME280;65652;53.132;18.026;2023-08-08T05:57:19;100305.97;;;15.46;62.01
76728;BME280;65652;53.132;18.026;2023-08-08T05:59:48;100310.66;;;15.42;62.04
76728;BME280;65652;53.132;18.026;2023-08-08T06:02:15;100311.69;;;15.41;62.00
76728;BME280;65652;53.132;18.026;2023-08-08T06:04:42;100324.56;;;15.42;61.84
76728;BME280;65652;53.132;18.026;2023-08-08T06:07:09;100323.20;;;15.43;61.75
76728;BME280;65652;53.132;18.026;2023-08-08T06:09:36;100326.77;;;15.46;61.56
76728;BME280;65652;53.132;18.026;2023-08-08T06:12:04;100323.29;;;15.45;61.57
76728;BME280;65652;53.132;18.026;2023-08-08T06:14:31;100323.86;;;15.50;61.54
76728;BME280;65652;53.132;18.026;2023-08-08T06:16:58;100318.47;;;15.56;61.57
76728;BME280;65652;53.132;18.026;2023-08-08T06:19:25;100327.15;;;15.65;60.88
76728;BME280;65652;53.132;18.026;2023-08-08T06:21:52;100318.85;;;15.82;60.65
76728;BME280;65652;53.132;18.026;2023-08-08T06:24:18;100328.11;;;15.91;59.90
76728;BME280;65652;53.132;18.026;2023-08-08T06:26:45;100325.43;;;15.95;60.08
76728;BME280;65652;53.132;18.026;2023-08-08T06:29:12;100330.27;;;16.09;59.28
76728;BME280;65652;53.132;18.026;2023-08-08T06:31:40;100328.03;;;16.19;59.07
76728;BME280;65652;53.132;18.026;2023-08-08T06:34:07;100338.72;;;16.19;58.52
76728;BME280;65652;53.132;18.026;2023-08-08T06:36:34;100340.42;;;16.20;58.90
76728;BME280;65652;53.132;18.026;2023-08-08T06:39:01;100336.78;;;16.24;59.02
76728;BME280;65652;53.132;18.026;2023-08-08T06:41:28;100330.02;;;16.45;58.50
76728;BME280;65652;53.132;18.026;2023-08-08T06:43:55;100325.84;;;16.69;57.92
76728;BME280;65652;53.132;18.026;2023-08-08T06:46:22;100334.52;;;16.86;56.93
76728;BME280;65652;53.132;18.026;2023-08-08T06:48:49;100336.64;;;16.99;57.37
76728;BME280;65652;53.132;18.026;2023-08-08T06:51:17;100342.20;;;16.93;56.61
76728;BME280;65652;53.132;18.026;2023-08-08T06:53:43;100344.52;;;16.84;56.28
76728;BME280;65652;53.132;18.026;2023-08-08T06:56:10;100334.67;;;16.86;56.73
76728;BME280;65652;53.132;18.026;2023-08-08T06:58:37;100342.12;;;17.01;56.78
76728;BME280;65652;53.132;18.026;2023-08-08T07:01:04;100340.04;;;17.02;55.33
76728;BME280;65652;53.132;18.026;2023-08-08T07:03:31;100329.71;;;16.83;55.22
76728;BME280;65652;53.132;18.026;2023-08-08T07:05:58;100330.38;;;16.91;56.16
76728;BME280;65652;53.132;18.026;2023-08-08T07:08:24;100332.71;;;17.08;55.17
76728;BME280;65652;53.132;18.026;2023-08-08T07:10:51;100332.95;;;17.21;55.05
76728;BME280;65652;53.132;18.026;2023-08-08T07:13:18;100328.73;;;17.23;54.79
76728;BME280;65652;53.132;18.026;2023-08-08T07:15:45;100333.00;;;17.42;54.82
76728;BME280;65652;53.132;18.026;2023-08-08T07:18:11;100329.44;;;17.63;54.60
76728;BME280;65652;53.132;18.026;2023-08-08T07:20:38;100337.48;;;17.80;53.25
76728;BME280;65652;53.132;18.026;2023-08-08T07:23:05;100337.95;;;17.86;53.06
76728;BME280;65652;53.132;18.026;2023-08-08T07:25:32;100331.16;;;17.95;52.91
76728;BME280;65652;53.132;18.026;2023-08-08T07:27:59;100343.71;;;17.98;52.78
76728;BME280;65652;53.132;18.026;2023-08-08T07:30:26;100344.13;;;18.05;51.84
76728;BME280;65652;53.132;18.026;2023-08-08T07:32:53;100349.29;;;18.07;51.89
76728;BME280;65652;53.132;18.026;2023-08-08T07:35:20;100336.61;;;18.10;51.86
76728;BME280;65652;53.132;18.026;2023-08-08T07:37:46;100342.84;;;18.17;51.90
76728;BME280;65652;53.132;18.026;2023-08-08T07:40:17;100342.81;;;18.31;52.00
76728;BME280;65652;53.132;18.026;2023-08-08T07:42:45;100345.48;;;18.38;51.26
76728;BME280;65652;53.132;18.026;2023-08-08T07:45:12;100350.04;;;18.46;51.14
76728;BME280;65652;53.132;18.026;2023-08-08T07:47:39;100339.67;;;18.42;51.67
76728;BME280;65652;53.132;18.026;2023-08-08T07:50:07;100358.03;;;18.41;51.50
76728;BME280;65652;53.132;18.026;2023-08-08T07:52:38;100360.77;;;18.32;51.19
76728;BME280;65652;53.132;18.026;2023-08-08T07:55:05;100359.14;;;18.24;51.84
76728;BME280;65652;53.132;18.026;2023-08-08T07:57:32;100355.10;;;18.35;51.44
76728;BME280;65652;53.132;18.026;2023-08-08T08:00:03;100360.83;;;18.29;51.92
76728;BME280;65652;53.132;18.026;2023-08-08T08:02:44;100365.16;;;18.16;51.53
76728;BME280;65652;53.132;18.026;2023-08-08T08:05:12;100364.64;;;17.97;52.12
76728;BME280;65652;53.132;18.026;2023-08-08T08:07:40;100365.17;;;17.88;52.55
76728;BME280;65652;53.132;18.026;2023-08-08T08:10:10;100370.18;;;17.98;51.83
76728;BME280;65652;53.132;18.026;2023-08-08T08:12:36;100379.09;;;17.96;51.73
76728;BME280;65652;53.132;18.026;2023-08-08T08:15:04;100371.26;;;17.89;52.00
76728;BME280;65652;53.132;18.026;2023-08-08T08:17:31;100377.20;;;17.71;51.93
76728;BME280;65652;53.132;18.026;2023-08-08T08:19:58;100381.10;;;17.58;52.38
76728;BME280;65652;53.132;18.026;2023-08-08T08:22:25;100387.94;;;17.63;52.78
76728;BME280;65652;53.132;18.026;2023-08-08T08:24:52;100398.60;;;17.67;51.92
76728;BME280;65652;53.132;18.026;2023-08-08T08:27:18;100399.31;;;17.67;52.14
76728;BME280;65652;53.132;18.026;2023-08-08T08:29:45;100392.23;;;17.75;52.24
76728;BME280;65652;53.132;18.026;2023-08-08T08:32:12;100400.88;;;17.97;52.45
76728;BME280;65652;53.132;18.026;2023-08-08T08:34:39;100400.37;;;18.11;51.87
76728;BME280;65652;53.132;18.026;2023-08-08T08:37:06;100404.09;;;18.09;51.70
76728;BME280;65652;53.132;18.026;2023-08-08T08:39:33;100412.70;;;18.24;51.23
76728;BME280;65652;53.132;18.026;2023-08-08T08:42:00;100401.98;;;18.23;51.59
76728;BME280;65652;53.132;18.026;2023-08-08T08:44:32;100406.16;;;18.16;51.68
76728;BME280;65652;53.132;18.026;2023-08-08T08:47:03;100405.69;;;18.07;51.73
76728;BME280;65652;53.132;18.026;2023-08-08T08:49:37;100407.33;;;18.24;51.48
76728;BME280;65652;53.132;18.026;2023-08-08T08:52:04;100404.40;;;18.40;51.16
76728;BME280;65652;53.132;18.026;2023-08-08T08:54:32;100408.48;;;18.44;50.52
76728;BME280;65652;53.132;18.026;2023-08-08T08:56:59;100415.96;;;18.37;50.96
76728;BME280;65652;53.132;18.026;2023-08-08T08:59:26;100417.02;;;18.28;50.84
76728;BME280;65652;53.132;18.026;2023-08-08T09:01:53;100407.80;;;18.49;50.92
76728;BME280;65652;53.132;18.026;2023-08-08T09:04:21;100408.83;;;18.45;50.87
76728;BME280;65652;53.132;18.026;2023-08-08T09:06:49;100412.42;;;18.35;51.28
76728;BME280;65652;53.132;18.026;2023-08-08T09:09:17;100423.80;;;18.25;51.28
76728;BME280;65652;53.132;18.026;2023-08-08T09:11:52;100417.91;;;18.13;51.37
76728;BME280;65652;53.132;18.026;2023-08-08T09:14:23;100422.73;;;18.18;51.33
76728;BME280;65652;53.132;18.026;2023-08-08T09:16:51;100423.20;;;18.13;51.49
76728;BME280;65652;53.132;18.026;2023-08-08T09:19:21;100429.91;;;18.05;51.35
76728;BME280;65652;53.132;18.026;2023-08-08T09:21:48;100427.41;;;17.89;51.81
76728;BME280;65652;53.132;18.026;2023-08-08T09:24:16;100433.34;;;17.76;52.40
76728;BME280;65652;53.132;18.026;2023-08-08T09:26:43;100422.41;;;17.68;52.50
76728;BME280;65652;53.132;18.026;2023-08-08T09:29:12;100427.19;;;17.64;52.89
76728;BME280;65652;53.132;18.026;2023-08-08T09:31:39;100440.14;;;17.55;52.83
76728;BME280;65652;53.132;18.026;2023-08-08T09:34:06;100430.13;;;17.59;52.67
76728;BME280;65652;53.132;18.026;2023-08-08T09:36:34;100432.48;;;17.71;52.54
76728;BME280;65652;53.132;18.026;2023-08-08T09:39:01;100430.29;;;17.85;52.35
76728;BME280;65652;53.132;18.026;2023-08-08T09:41:29;100434.67;;;17.98;52.22
76728;BME280;65652;53.132;18.026;2023-08-08T09:43:56;100439.71;;;18.11;52.06
76728;BME280;65652;53.132;18.026;2023-08-08T09:46:23;100442.66;;;18.37;50.73
76728;BME280;65652;53.132;18.026;2023-08-08T09:48:51;100438.01;;;18.38;50.86
76728;BME280;65652;53.132;18.026;2023-08-08T09:51:19;100443.06;;;18.25;51.13
76728;BME280;65652;53.132;18.026;2023-08-08T09:53:48;100444.33;;;18.13;51.56
76728;BME280;65652;53.132;18.026;2023-08-08T09:56:16;100450.42;;;18.04;51.87
76728;BME280;65652;53.132;18.026;2023-08-08T09:58:43;100451.30;;;18.04;52.13
76728;BME280;65652;53.132;18.026;2023-08-08T10:01:11;100449.18;;;18.16;52.25
76728;BME280;65652;53.132;18.026;2023-08-08T10:03:41;100452.27;;;18.24;52.22
76728;BME280;65652;53.132;18.026;2023-08-08T10:06:09;100445.89;;;18.59;51.84
76728;BME280;65652;53.132;18.026;2023-08-08T10:08:36;100448.98;;;18.95;50.89
76728;BME280;65652;53.132;18.026;2023-08-08T10:11:05;100445.11;;;19.09;50.50
76728;BME280;65652;53.132;18.026;2023-08-08T10:13:34;100436.05;;;19.26;50.39
76728;BME280;65652;53.132;18.026;2023-08-08T10:16:08;100441.63;;;19.60;49.51
76728;BME280;65652;53.132;18.026;2023-08-08T10:18:35;100435.09;;;19.67;49.30
76728;BME280;65652;53.132;18.026;2023-08-08T10:21:04;100434.35;;;19.63;49.25
76728;BME280;65652;53.132;18.026;2023-08-08T10:23:37;100429.83;;;19.55;48.89
76728;BME280;65652;53.132;18.026;2023-08-08T10:26:04;100431.08;;;19.52;48.92
76728;BME280;65652;53.132;18.026;2023-08-08T10:28:32;100432.45;;;19.55;48.09
76728;BME280;65652;53.132;18.026;2023-08-08T10:31:01;100429.04;;;19.89;48.18
76728;BME280;65652;53.132;18.026;2023-08-08T10:33:42;100426.69;;;20.39;47.39
76728;BME280;65652;53.132;18.026;2023-08-08T10:36:10;100433.81;;;20.72;46.45
76728;BME280;65652;53.132;18.026;2023-08-08T10:38:42;100423.10;;;20.55;46.69
76728;BME280;65652;53.132;18.026;2023-08-08T10:41:11;100432.94;;;20.48;46.69
76728;BME280;65652;53.132;18.026;2023-08-08T10:43:38;100431.91;;;20.31;46.43
76728;BME280;65652;53.132;18.026;2023-08-08T10:46:12;100425.21;;;20.19;47.06
76728;BME280;65652;53.132;18.026;2023-08-08T10:48:51;100420.79;;;20.19;46.80
76728;BME280;65652;53.132;18.026;2023-08-08T10:51:18;100419.30;;;20.13;46.97
76728;BME280;65652;53.132;18.026;2023-08-08T10:53:46;100431.20;;;20.04;47.00
76728;BME280;65652;53.132;18.026;2023-08-08T10:56:13;100435.77;;;19.95;47.32
76728;BME280;65652;53.132;18.026;2023-08-08T10:58:42;100433.27;;;20.26;46.72
76728;BME280;65652;53.132;18.026;2023-08-08T11:01:13;100438.96;;;20.85;45.54
76728;BME280;65652;53.132;18.026;2023-08-08T11:03:41;100429.91;;;20.95;45.28
76728;BME280;65652;53.132;18.026;2023-08-08T11:06:09;100430.45;;;20.99;45.70
76728;BME280;65652;53.132;18.026;2023-08-08T11:08:37;100435.83;;;20.82;45.38
76728;BME280;65652;53.132;18.026;2023-08-08T11:11:05;100436.21;;;20.56;45.75
76728;BME280;65652;53.132;18.026;2023-08-08T11:13:33;100438.79;;;20.28;46.08
76728;BME280;65652;53.132;18.026;2023-08-08T11:16:00;100449.40;;;20.08;46.32
76728;BME280;65652;53.132;18.026;2023-08-08T11:18:28;100448.92;;;19.99;46.44
76728;BME280;65652;53.132;18.026;2023-08-08T11:20:55;100450.11;;;19.83;46.60
76728;BME280;65652;53.132;18.026;2023-08-08T11:23:22;100441.61;;;19.66;47.31
76728;BME280;65652;53.132;18.026;2023-08-08T11:25:49;100452.76;;;19.50;47.80
76728;BME280;65652;53.132;18.026;2023-08-08T11:28:17;100456.68;;;19.30;48.14
76728;BME280;65652;53.132;18.026;2023-08-08T11:30:45;100462.86;;;19.17;48.48
76728;BME280;65652;53.132;18.026;2023-08-08T11:33:13;100453.45;;;19.13;49.66
76728;BME280;65652;53.132;18.026;2023-08-08T11:35:45;100451.13;;;19.08;49.85
76728;BME280;65652;53.132;18.026;2023-08-08T11:38:16;100455.74;;;18.98;49.94
76728;BME280;65652;53.132;18.026;2023-08-08T11:40:44;100455.41;;;18.94;50.00
76728;BME280;65652;53.132;18.026;2023-08-08T11:43:12;100459.92;;;18.98;49.70
76728;BME280;65652;53.132;18.026;2023-08-08T11:45:40;100457.39;;;19.06;49.30
76728;BME280;65652;53.132;18.026;2023-08-08T11:48:08;100454.59;;;19.20;49.23
76728;BME280;65652;53.132;18.026;2023-08-08T11:50:37;100461.73;;;19.41;48.58
76728;BME280;65652;53.132;18.026;2023-08-08T11:53:03;100455.63;;;19.86;47.66
76728;BME280;65652;53.132;18.026;2023-08-08T11:55:31;100450.19;;;20.34;47.37
76728;BME280;65652;53.132;18.026;2023-08-08T11:57:58;100448.38;;;20.81;46.86
76728;BME280;65652;53.132;18.026;2023-08-08T12:00:30;100450.40;;;21.12;45.67
76728;BME280;65652;53.132;18.026;2023-08-08T12:02:58;100446.20;;;21.01;45.70
76728;BME280;65652;53.132;18.026;2023-08-08T12:05:27;100440.91;;;20.84;46.09
76728;BME280;65652;53.132;18.026;2023-08-08T12:07:54;100443.16;;;20.82;46.39
76728;BME280;65652;53.132;18.026;2023-08-08T12:10:22;100441.41;;;20.90;46.54
76728;BME280;65652;53.132;18.026;2023-08-08T12:12:54;100446.46;;;21.08;46.43
76728;BME280;65652;53.132;18.026;2023-08-08T12:15:22;100440.77;;;21.58;44.48
76728;BME280;65652;53.132;18.026;2023-08-08T12:17:49;100436.45;;;21.88;44.03
76728;BME280;65652;53.132;18.026;2023-08-08T12:20:15;100428.02;;;22.16;42.45
76728;BME280;65652;53.132;18.026;2023-08-08T12:22:42;100422.88;;;22.18;42.15
76728;BME280;65652;53.132;18.026;2023-08-08T12:25:09;100417.90;;;22.34;42.26
76728;BME280;65652;53.132;18.026;2023-08-08T12:27:36;100419.59;;;22.69;41.87
76728;BME280;65652;53.132;18.026;2023-08-08T12:30:03;100422.98;;;22.70;41.79
76728;BME280;65652;53.132;18.026;2023-08-08T12:32:30;100430.63;;;22.67;40.90
76728;BME280;65652;53.132;18.026;2023-08-08T12:34:59;100417.91;;;22.74;40.72
76728;BME280;65652;53.132;18.026;2023-08-08T12:37:25;100414.57;;;22.98;41.65
76728;BME280;65652;53.132;18.026;2023-08-08T12:39:52;100422.03;;;23.53;39.79
76728;BME280;65652;53.132;18.026;2023-08-08T12:42:19;100418.49;;;23.61;39.48
76728;BME280;65652;53.132;18.026;2023-08-08T12:44:46;100417.72;;;23.33;40.65